createdAt,value
2019-03-06T00:01:42.023Z,4.47
2019-03-06T00:04:13.095Z,5.30
2019-03-06T00:09:15.067Z,5.08
2019-03-06T00:11:46.087Z,4.95
2019-03-06T00:16:47.658Z,4.63
2019-03-06T00:19:18.767Z,4.87
2019-03-06T00:24:20.592Z,4.58
2019-03-06T00:26:51.745Z,4.58
2019-03-06T00:29:23.258Z,4.70
2019-03-06T00:31:54.429Z,4.80
2019-03-06T00:34:25.679Z,4.42
2019-03-06T00:36:56.906Z,5.53
2019-03-06T00:39:29.605Z,4.70
2019-03-06T00:42:00.879Z,4.90
2019-03-06T00:44:32.150Z,4.95
2019-03-06T00:47:03.320Z,4.55
2019-03-06T00:49:36.179Z,4.78
2019-03-06T00:52:09.533Z,5.00
2019-03-06T00:54:40.716Z,4.72
2019-03-06T00:57:14.193Z,5.15
2019-03-06T00:59:45.413Z,4.42
2019-03-06T01:02:16.670Z,5.00
2019-03-06T01:04:48.970Z,4.90
2019-03-06T01:07:20.218Z,5.17
2019-03-06T01:09:51.356Z,4.55
2019-03-06T01:12:22.632Z,4.47
2019-03-06T01:14:53.773Z,4.62
2019-03-06T01:17:26.070Z,4.42
2019-03-06T01:19:57.367Z,5.28
2019-03-06T01:22:28.655Z,5.00
2019-03-06T01:24:59.913Z,5.30
2019-03-06T01:27:31.183Z,4.40
2019-03-06T01:30:02.397Z,4.95
2019-03-06T01:32:35.492Z,4.65
2019-03-06T01:35:18.210Z,4.53
2019-03-06T01:38:07.235Z,5.05
2019-03-06T01:40:46.380Z,5.00
2019-03-06T01:43:25.307Z,4.97
2019-03-06T01:45:57.113Z,4.55
2019-03-06T01:48:28.943Z,4.90
2019-03-06T01:51:01.162Z,4.70
2019-03-06T01:53:32.333Z,4.58
2019-03-06T01:56:05.093Z,4.50
2019-03-06T01:58:36.367Z,5.08
2019-03-06T02:01:07.623Z,6.08
2019-03-06T02:03:39.147Z,5.25
2019-03-06T02:06:10.368Z,5.72
2019-03-06T02:08:41.649Z,4.72
2019-03-06T02:11:13.092Z,4.95
2019-03-06T02:13:44.373Z,5.83
2019-03-06T02:16:15.553Z,5.35
2019-03-06T02:18:46.979Z,5.72
2019-03-06T02:21:18.198Z,4.45
2019-03-06T02:23:49.302Z,5.78
2019-03-06T02:26:20.552Z,5.83
2019-03-06T02:28:52.453Z,6.60
2019-03-06T02:31:23.773Z,6.00
2019-03-06T02:33:55.008Z,6.00
2019-03-06T02:36:26.512Z,6.25
2019-03-06T02:38:57.770Z,6.50
2019-03-06T02:41:28.988Z,5.97
2019-03-06T02:44:01.421Z,6.12
2019-03-06T02:46:32.993Z,6.10
2019-03-06T02:49:04.310Z,6.15
2019-03-06T02:51:35.661Z,5.97
2019-03-06T02:54:08.017Z,6.25
2019-03-06T02:56:39.635Z,6.55
2019-03-06T02:59:12.484Z,6.92
2019-03-06T03:01:54.816Z,6.25
2019-03-06T03:04:27.522Z,6.87
2019-03-06T03:07:02.769Z,6.87
2019-03-06T03:09:34.076Z,7.42
2019-03-06T03:12:05.346Z,7.58
2019-03-06T03:14:36.704Z,6.80
2019-03-06T03:17:07.680Z,7.53
2019-03-06T03:22:09.853Z,6.85
2019-03-06T03:24:41.173Z,7.35
2019-03-06T03:27:12.460Z,7.25
2019-03-06T03:29:43.659Z,7.85
2019-03-06T03:32:14.889Z,6.97
2019-03-06T03:34:46.167Z,7.45
2019-03-06T03:37:19.082Z,7.05
2019-03-06T03:39:50.180Z,7.50
2019-03-06T03:42:21.477Z,8.28
2019-03-06T03:44:52.712Z,7.55
2019-03-06T03:47:24.013Z,8.58
2019-03-06T03:49:55.252Z,7.87
2019-03-06T03:52:26.443Z,7.72
2019-03-06T03:54:57.874Z,7.90
2019-03-06T03:57:29.203Z,7.50
2019-03-06T04:00:00.490Z,7.53
2019-03-06T04:02:32.417Z,7.30
2019-03-06T04:05:06.381Z,8.23
2019-03-06T04:07:40.625Z,7.85
2019-03-06T04:10:15.895Z,7.25
2019-03-06T04:12:47.265Z,7.67
2019-03-06T04:15:19.003Z,7.85
2019-03-06T04:17:50.306Z,8.00
2019-03-06T04:20:21.563Z,7.70
2019-03-06T04:22:53.275Z,8.35
2019-03-06T04:25:24.456Z,8.28
2019-03-06T04:27:55.700Z,7.75
2019-03-06T04:30:27.943Z,8.33
2019-03-06T04:32:59.192Z,8.08
2019-03-06T04:35:30.354Z,7.83
2019-03-06T04:38:01.915Z,7.78
2019-03-06T04:40:33.127Z,7.78
2019-03-06T04:43:04.244Z,6.85
2019-03-06T04:45:35.452Z,7.17
2019-03-06T04:48:06.589Z,7.50
2019-03-06T04:50:37.786Z,7.22
2019-03-06T04:53:09.041Z,7.37
2019-03-06T04:55:41.263Z,7.58
2019-03-06T04:58:12.517Z,7.22
2019-03-06T05:00:43.877Z,8.25
2019-03-06T05:03:15.125Z,6.67
2019-03-06T05:05:46.247Z,5.97
2019-03-06T05:08:17.417Z,6.20
2019-03-06T05:10:48.836Z,5.78
2019-03-06T05:13:21.112Z,5.53
2019-03-06T05:15:53.367Z,5.78
2019-03-06T05:18:32.138Z,5.40
2019-03-06T05:21:03.462Z,5.85
2019-03-06T05:23:34.561Z,5.47
2019-03-06T05:26:05.713Z,5.08
2019-03-06T05:28:36.936Z,5.55
2019-03-06T05:31:08.178Z,5.22
2019-03-06T05:36:15.937Z,5.20
2019-03-06T05:39:05.332Z,5.37
2019-03-06T05:41:38.124Z,5.75
2019-03-06T05:44:09.341Z,5.65
2019-03-06T05:46:40.542Z,5.72
2019-03-06T05:49:13.902Z,6.47
2019-03-06T05:51:44.964Z,6.10
2019-03-06T05:54:16.291Z,5.90
2019-03-06T05:56:48.475Z,5.37
2019-03-06T05:59:19.888Z,6.15
2019-03-06T06:01:51.025Z,6.37
2019-03-06T06:04:23.515Z,6.20
2019-03-06T06:06:54.731Z,5.53
2019-03-06T06:09:26.054Z,6.05
2019-03-06T06:11:58.895Z,6.30
2019-03-06T06:14:30.164Z,5.75
2019-03-06T06:17:02.236Z,6.05
2019-03-06T06:19:34.619Z,6.08
2019-03-06T06:22:10.507Z,6.05
2019-03-06T06:24:43.152Z,6.17
2019-03-06T06:27:14.544Z,7.25
2019-03-06T06:29:47.578Z,6.53
2019-03-06T06:32:18.713Z,7.22
2019-03-06T06:34:50.009Z,7.00
2019-03-06T06:37:21.132Z,6.58
2019-03-06T06:39:52.785Z,7.90
2019-03-06T06:42:24.352Z,7.28
2019-03-06T06:44:55.542Z,6.83
2019-03-06T06:47:26.741Z,6.62
2019-03-06T06:49:58.065Z,6.75
2019-03-06T06:52:35.002Z,6.78
2019-03-06T06:55:29.868Z,6.65
2019-03-06T06:58:04.406Z,6.75
2019-03-06T07:00:52.220Z,6.85
2019-03-06T07:03:43.195Z,7.03
2019-03-06T07:06:15.968Z,7.90
2019-03-06T07:08:51.435Z,7.40
2019-03-06T07:11:24.199Z,8.10
2019-03-06T07:14:06.217Z,7.75
2019-03-06T07:54:02.293Z,11.08
2019-03-06T07:56:35.420Z,10.78
2019-03-06T07:59:07.484Z,15.10
2019-03-06T08:01:41.907Z,10.63
2019-03-06T08:04:14.685Z,12.50
2019-03-06T08:06:47.750Z,15.40
2019-03-06T08:09:22.812Z,12.33
2019-03-06T08:12:56.760Z,13.05
2019-03-06T08:15:36.198Z,13.43
2019-03-06T08:18:08.895Z,15.83
2019-03-06T08:20:47.740Z,16.27
2019-03-06T08:23:26.562Z,15.32
2019-03-06T08:25:57.688Z,13.68
2019-03-06T08:28:28.810Z,14.83
2019-03-06T08:31:01.512Z,14.70
2019-03-06T08:33:32.613Z,14.83
2019-03-06T08:36:03.701Z,14.35
2019-03-06T08:38:34.888Z,13.43
2019-03-06T08:41:06.694Z,13.15
2019-03-06T08:43:40.948Z,12.13
2019-03-06T08:48:58.993Z,13.22
2019-03-06T08:51:31.949Z,12.73
2019-03-06T08:54:04.699Z,12.55
2019-03-06T08:56:46.696Z,12.82
2019-03-06T08:59:28.518Z,12.82
2019-03-06T09:02:01.370Z,13.58
2019-03-06T09:04:34.698Z,13.43
2019-03-06T09:07:13.314Z,17.12
2019-03-06T09:09:46.126Z,13.35
2019-03-06T09:12:18.865Z,12.47
2019-03-06T09:15:07.821Z,15.25
2019-03-06T09:17:40.646Z,14.45
2019-03-06T09:23:09.161Z,14.33
2019-03-06T09:25:41.926Z,13.22
2019-03-06T09:28:16.125Z,11.33
2019-03-06T09:30:54.878Z,15.18
2019-03-06T09:33:27.650Z,16.87
2019-03-06T09:36:00.373Z,13.58
2019-03-06T09:38:50.200Z,13.28
2019-03-06T09:41:23.241Z,15.25
2019-03-06T09:43:55.979Z,12.40
2019-03-06T09:46:31.553Z,12.75
2019-03-06T09:49:11.058Z,12.37
2019-03-06T09:51:38.850Z,13.80
2019-03-06T09:54:29.702Z,13.15
2019-03-06T09:59:54.169Z,12.85
2019-03-06T10:02:30.173Z,13.18
2019-03-06T10:05:09.100Z,13.05
2019-03-06T10:07:41.777Z,13.13
2019-03-06T10:10:32.986Z,16.85
2019-03-06T10:15:37.807Z,14.47
2019-03-06T10:18:10.595Z,13.65
2019-03-06T10:20:42.438Z,16.75
2019-03-06T10:23:16.267Z,15.20
2019-03-06T10:25:47.420Z,16.27
2019-03-06T10:28:27.507Z,15.55
2019-03-06T10:31:01.870Z,15.50
2019-03-06T10:33:25.609Z,19.25
2019-03-06T10:35:56.869Z,17.07
2019-03-06T10:38:28.232Z,16.73
2019-03-06T10:40:59.528Z,16.37
2019-03-06T10:43:30.567Z,16.30
2019-03-06T10:46:01.914Z,22.73
2019-03-06T10:48:33.086Z,14.87
2019-03-06T10:51:04.349Z,14.87
2019-03-06T10:53:41.266Z,13.60
2019-03-06T10:56:11.157Z,14.90
2019-03-06T10:58:42.303Z,15.53
2019-03-06T11:01:13.775Z,16.20
2019-03-06T11:03:53.582Z,15.00
2019-03-06T11:06:25.703Z,15.38
2019-03-06T11:08:56.960Z,14.55
2019-03-06T11:11:31.244Z,13.70
2019-03-06T11:14:06.106Z,14.43
2019-03-06T11:16:40.340Z,15.50
2019-03-06T11:19:08.760Z,13.90
2019-03-06T11:21:40.070Z,16.30
2019-03-06T11:24:11.277Z,15.38
2019-03-06T11:26:43.821Z,15.63
2019-03-06T11:29:15.370Z,16.35
2019-03-06T11:31:46.723Z,16.02
2019-03-06T11:34:18.967Z,16.32
2019-03-06T11:36:50.366Z,18.07
2019-03-06T11:39:24.263Z,18.98
2019-03-06T11:41:55.602Z,18.82
2019-03-06T11:44:28.296Z,17.90
2019-03-06T11:47:02.901Z,17.82
2019-03-06T11:49:36.873Z,22.13
2019-03-06T11:52:08.077Z,22.25
2019-03-06T11:54:39.251Z,17.50
2019-03-06T11:57:10.395Z,15.88
2019-03-06T11:59:41.531Z,17.00
2019-03-06T12:02:12.776Z,17.10
2019-03-06T12:06:52.274Z,15.75
2019-03-06T12:09:27.404Z,17.20
2019-03-06T12:12:00.083Z,17.77
2019-03-06T12:14:32.503Z,16.07
2019-03-06T12:17:03.673Z,15.88
2019-03-06T12:19:35.124Z,16.17
2019-03-06T12:22:06.511Z,17.62
2019-03-06T12:24:37.702Z,17.45
2019-03-06T12:27:09.922Z,18.90
2019-03-06T12:29:41.833Z,17.50
2019-03-06T12:32:15.438Z,17.98
2019-03-06T12:34:46.557Z,19.85
2019-03-06T12:37:18.488Z,20.30
2019-03-06T12:39:49.887Z,18.65
2019-03-06T12:42:21.029Z,20.25
2019-03-06T12:44:52.682Z,21.35
2019-03-06T12:47:24.753Z,22.02
2019-03-06T12:49:55.969Z,22.22
2019-03-06T12:52:27.123Z,30.65
2019-03-06T12:54:59.115Z,32.75
2019-03-06T12:57:32.713Z,27.20
2019-03-06T13:00:08.388Z,24.18
2019-03-06T13:02:39.575Z,25.15
2019-03-06T13:05:11.064Z,20.15
2019-03-06T13:07:43.422Z,20.08
2019-03-06T13:10:16.639Z,20.77
2019-03-06T13:12:49.050Z,28.83
2019-03-06T13:15:25.065Z,20.45
2019-03-06T13:17:58.954Z,21.77
2019-03-06T13:20:30.129Z,27.58
2019-03-06T13:23:01.263Z,26.62
2019-03-06T13:25:32.356Z,27.45
2019-03-06T13:28:03.559Z,36.33
2019-03-06T13:30:34.756Z,29.85
2019-03-06T13:33:13.861Z,30.23
2019-03-06T13:35:45.150Z,33.50
2019-03-06T13:38:16.530Z,25.95
2019-03-06T13:40:48.126Z,31.93
2019-03-06T13:43:19.489Z,28.98
2019-03-06T13:45:51.739Z,30.35
2019-03-06T13:48:22.983Z,50.15
2019-03-06T13:50:54.617Z,27.17
2019-03-06T13:53:28.936Z,28.17
2019-03-06T13:56:01.670Z,27.17
2019-03-06T13:58:32.981Z,26.77
2019-03-06T14:01:05.440Z,42.10
2019-03-06T14:03:36.619Z,25.17
2019-03-06T14:06:10.142Z,24.40
2019-03-06T14:08:41.278Z,30.32
2019-03-06T14:11:12.423Z,30.35
2019-03-06T14:13:43.675Z,25.72
2019-03-06T14:16:14.895Z,25.82
2019-03-06T14:18:46.048Z,29.92
2019-03-06T14:21:17.291Z,26.40
2019-03-06T14:23:48.435Z,22.82
2019-03-06T14:26:19.737Z,27.30
2019-03-06T14:28:51.713Z,24.70
2019-03-06T14:31:25.163Z,23.57
2019-03-06T14:33:56.385Z,23.18
2019-03-06T14:36:27.647Z,21.45
2019-03-06T14:38:59.160Z,23.00
2019-03-06T14:41:31.820Z,22.10
2019-03-06T14:44:04.272Z,22.50
2019-03-06T14:46:35.459Z,27.50
2019-03-06T14:49:06.609Z,23.40
2019-03-06T14:51:38.451Z,25.30
2019-03-06T14:54:09.928Z,27.98
2019-03-06T14:56:43.893Z,25.27
2019-03-06T14:59:15.188Z,20.52
2019-03-06T15:01:46.499Z,19.48
2019-03-06T15:04:17.826Z,17.55
2019-03-06T15:06:49.206Z,20.72
2019-03-06T15:09:24.600Z,18.67
2019-03-06T15:11:57.351Z,19.75
2019-03-06T15:14:35.862Z,21.05
2019-03-06T15:17:02.798Z,19.92
2019-03-06T15:19:35.535Z,19.02
2019-03-06T15:22:08.455Z,17.82
2019-03-06T15:24:42.016Z,16.45
2019-03-06T15:27:13.229Z,16.07
2019-03-06T15:29:46.372Z,16.90
2019-03-06T15:32:17.570Z,16.17
2019-03-06T15:34:48.680Z,13.25
2019-03-06T15:37:19.891Z,12.70
2019-03-06T15:39:51.073Z,14.80
2019-03-06T15:42:22.242Z,14.40
2019-03-06T15:44:53.378Z,16.37
2019-03-06T15:47:33.235Z,16.80
2019-03-06T15:49:57.453Z,17.85
2019-03-06T15:52:28.749Z,18.17
2019-03-06T15:57:31.308Z,20.57
2019-03-06T16:00:02.472Z,21.23
2019-03-06T16:02:36.142Z,20.43
2019-03-06T16:05:10.777Z,22.80
2019-03-06T16:07:41.990Z,21.33
2019-03-06T16:10:15.110Z,21.42
2019-03-06T16:12:47.558Z,22.65
2019-03-06T16:15:18.718Z,21.77
2019-03-06T16:17:50.028Z,23.38
2019-03-06T16:20:22.289Z,23.92
2019-03-06T16:22:53.403Z,23.42
2019-03-06T16:25:36.106Z,25.72
2019-03-06T16:27:59.435Z,23.95
2019-03-06T16:30:32.116Z,23.67
2019-03-06T16:33:03.352Z,23.20
2019-03-06T16:35:34.505Z,24.15
2019-03-06T16:38:06.566Z,23.27
2019-03-06T16:40:37.771Z,23.75
2019-03-06T16:43:09.022Z,19.00
2019-03-06T16:45:41.719Z,19.15
2019-03-06T16:48:12.918Z,18.65
2019-03-06T16:50:44.770Z,20.90
2019-03-06T16:53:16.042Z,18.17
2019-03-06T16:55:48.783Z,17.45
2019-03-06T16:58:19.968Z,18.00
2019-03-06T17:00:51.166Z,17.12
2019-03-06T17:03:22.703Z,17.85
2019-03-06T17:05:54.691Z,20.40
2019-03-06T17:08:28.116Z,18.57
2019-03-06T17:11:00.455Z,18.65
2019-03-06T17:13:33.275Z,11.63
2019-03-06T17:16:04.412Z,15.60
2019-03-06T17:18:35.620Z,14.40
2019-03-06T17:21:06.761Z,14.73
2019-03-06T17:23:38.006Z,17.55
2019-03-06T17:26:09.265Z,13.85
2019-03-06T17:28:40.488Z,17.23
2019-03-06T17:31:12.303Z,16.73
2019-03-06T17:33:43.528Z,15.88
2019-03-06T17:36:14.792Z,16.82
2019-03-06T17:38:46.360Z,17.60
2019-03-06T17:41:18.709Z,16.57
2019-03-06T17:43:50.020Z,17.15
2019-03-06T17:46:23.465Z,16.60
2019-03-06T17:48:54.729Z,15.85
2019-03-06T17:51:26.288Z,15.10
2019-03-06T17:53:57.521Z,14.98
2019-03-06T17:56:29.923Z,13.78
2019-03-06T17:59:04.294Z,15.13
2019-03-06T18:01:35.601Z,15.45
2019-03-06T18:04:08.809Z,16.25
2019-03-06T18:06:40.133Z,17.50
2019-03-06T18:09:11.444Z,15.28
2019-03-06T18:11:43.721Z,16.35
2019-03-06T18:14:14.888Z,15.30
2019-03-06T18:16:45.959Z,14.10
2019-03-06T18:21:47.584Z,11.35
2019-03-06T18:24:18.805Z,12.45
2019-03-06T18:26:49.929Z,12.35
2019-03-06T18:29:21.452Z,14.07
2019-03-06T18:31:54.146Z,13.80
2019-03-06T18:34:25.313Z,14.85
2019-03-06T18:36:56.429Z,12.25
2019-03-06T18:39:28.745Z,9.18
2019-03-06T18:42:00.299Z,9.88
2019-03-06T18:44:31.557Z,9.83
2019-03-06T18:47:02.707Z,8.65
2019-03-06T18:49:33.887Z,8.35
2019-03-06T18:52:05.047Z,7.85
2019-03-06T18:54:36.518Z,7.05
2019-03-06T18:57:07.634Z,8.35
2019-03-06T18:59:38.795Z,7.75
2019-03-06T19:02:09.961Z,8.05
2019-03-06T19:04:41.321Z,8.08
2019-03-06T19:07:12.554Z,7.67
2019-03-06T19:09:43.968Z,8.30
2019-03-06T19:12:15.060Z,8.78
2019-03-06T19:14:46.255Z,7.15
2019-03-06T19:17:17.486Z,8.05
2019-03-06T19:19:48.977Z,9.08
2019-03-06T19:22:20.135Z,9.38
2019-03-06T19:26:27.362Z,10.05
2019-03-06T19:28:58.751Z,8.23
2019-03-06T19:31:30.005Z,8.63
2019-03-06T19:34:01.121Z,8.33
2019-03-06T19:36:32.324Z,8.55
2019-03-06T19:39:04.062Z,8.90
2019-03-06T19:41:36.992Z,9.08
2019-03-06T19:44:08.058Z,9.03
2019-03-06T19:49:10.265Z,7.22
2019-03-06T19:54:11.887Z,8.05
2019-03-06T19:56:43.184Z,8.63
2019-03-06T19:59:14.302Z,8.75
2019-03-06T20:01:45.503Z,8.85
2019-03-06T20:04:16.606Z,9.65
2019-03-06T20:06:47.774Z,7.87
2019-03-06T20:09:26.882Z,7.90
2019-03-06T20:11:58.122Z,6.55
2019-03-06T20:14:29.157Z,6.40
2019-03-06T20:19:30.801Z,7.62
2019-03-06T20:22:02.201Z,7.42
2019-03-06T20:24:33.439Z,6.50
2019-03-06T20:27:04.684Z,6.62
2019-03-06T20:29:35.763Z,6.15
2019-03-06T20:34:41.808Z,8.10
2019-03-06T20:37:13.076Z,7.95
2019-03-06T20:39:44.299Z,7.17
2019-03-06T20:42:16.449Z,7.50
2019-03-06T20:44:48.509Z,6.55
2019-03-06T20:47:19.705Z,6.00
2019-03-06T20:49:50.852Z,7.30
2019-03-06T20:52:21.989Z,4.72
2019-03-06T20:54:53.142Z,5.28
2019-03-06T20:57:24.274Z,5.28
2019-03-06T20:59:56.667Z,4.90
2019-03-06T21:02:27.904Z,5.08
2019-03-06T21:05:01.984Z,5.47
2019-03-06T21:10:04.472Z,6.62
2019-03-06T21:12:35.652Z,6.15
2019-03-06T21:15:09.807Z,5.42
2019-03-06T21:17:40.982Z,5.95
2019-03-06T21:20:20.385Z,6.35
2019-03-06T21:22:51.593Z,5.58
2019-03-06T21:25:23.685Z,6.12
2019-03-06T21:27:55.135Z,6.62
2019-03-06T21:30:36.605Z,5.90
2019-03-06T21:33:07.865Z,7.30
2019-03-06T21:35:40.009Z,7.50
2019-03-06T21:38:11.200Z,6.20
2019-03-06T21:40:42.395Z,6.70
2019-03-06T21:43:13.569Z,6.67
2019-03-06T21:45:44.834Z,7.03
2019-03-06T21:48:16.171Z,7.35
2019-03-06T21:50:47.415Z,7.97
2019-03-06T21:53:18.567Z,8.03
2019-03-06T21:55:49.737Z,9.28
2019-03-06T21:58:20.927Z,9.35
2019-03-06T22:00:52.069Z,9.75
2019-03-06T22:03:24.775Z,8.83
2019-03-06T22:05:56.070Z,5.85
2019-03-06T22:08:28.103Z,7.75
2019-03-06T22:10:59.239Z,7.15
2019-03-06T22:13:30.445Z,6.20
2019-03-06T22:16:01.626Z,7.55
2019-03-06T22:18:32.792Z,6.35
2019-03-06T22:21:05.054Z,5.10
2019-03-06T22:23:36.807Z,4.67
2019-03-06T22:26:07.938Z,5.67
2019-03-06T22:31:10.910Z,4.95
2019-03-06T22:33:42.181Z,6.33
2019-03-06T22:36:13.383Z,6.45
2019-03-06T22:38:44.669Z,6.35
2019-03-06T22:41:16.190Z,6.10
2019-03-06T22:43:48.607Z,5.15
2019-03-06T22:46:20.114Z,6.05
2019-03-06T22:48:52.408Z,5.20
2019-03-06T22:51:25.433Z,6.00
2019-03-06T22:53:56.576Z,5.80
2019-03-06T22:56:27.718Z,5.67
2019-03-06T22:58:59.010Z,6.60
2019-03-06T23:01:31.697Z,7.25
2019-03-06T23:04:03.328Z,8.05
2019-03-06T23:06:34.704Z,7.92
2019-03-06T23:09:06.744Z,9.18
2019-03-06T23:11:39.431Z,9.05
2019-03-06T23:14:11.616Z,8.95
2019-03-06T23:16:43.872Z,9.03
2019-03-06T23:19:16.850Z,8.78
2019-03-06T23:21:48.851Z,8.38
2019-03-06T23:24:19.972Z,8.75
2019-03-06T23:26:52.728Z,7.45
2019-03-06T23:29:24.331Z,7.40
2019-03-06T23:31:55.529Z,7.97
2019-03-06T23:34:27.261Z,8.05
2019-03-06T23:36:58.371Z,7.37
2019-03-06T23:39:29.532Z,8.20
2019-03-06T23:42:00.933Z,8.20
2019-03-06T23:44:32.214Z,7.78
2019-03-06T23:47:05.749Z,8.78
2019-03-06T23:49:37.185Z,8.95
2019-03-06T23:52:11.948Z,7.90
2019-03-06T23:54:43.258Z,9.18
2019-03-06T23:57:14.424Z,8.88
2019-03-06T23:59:46.699Z,9.78
